Weather at El Malagueño Airport

Public forecast

Using degrees Celsius for public forecast. Weather courtesy of forecast.io.

Closest aviation weather report (METAR) to El Malagueño Airport

Report is more than 6 hours old.

Closest report is Nueva Hesperides International Airport, 74.1 nm (137.2 km) ENE.

2024/07/20 22:00 (retrieved 10 hours ago)

SUSO 202200Z 13006KT CAVOK 17/13 Q1018

Closest aviation forecast (TAF) to El Malagueño Airport

Closest forecast is Nueva Hesperides International Airport, 74.1 nm (137.2 km) ENE.

2024/07/21 06:15 (retrieved 1 hour ago)

TAF SUSO 210530Z 2106/2206 04005KT CAVOK TX23/2118Z TN13/2111Z TEMPO 2106/2112 3000 BR BKN008 TEMPO 2107/2112 0500 FG BKN005 BECMG 2120/2122 16010KT